Nearby METAR Reports

 

KHQM - Hoquiam,WA, USA
Updated: 03/31/2020 2:53pm
Partly cloudy
Partly cloudy
 Wind from WSW
Wind: WSW 16 mph , 26 km/h
Temperature: 48°F , 9°C
Wind Chill: 42°F , 6°C
Dew Point: 39°F , 4°C
Humidity: 71%
Barometer: 30.05 inHg , 1017.6 hPa
Clouds: Partly cloudy
Visibility: 10 miles , 16 km
Cloud details: Partly cloudy 4600 ft
Partly cloudy 5500 ft
2020/03/31 21:53 KHQM 312153Z AUTO 24014KT 10SM SCT046 SCT055 09/04 A3005 RMK AO2 SLP180 T00890044